createdAt,value
2022-11-18T00:01:58.366Z,9.70
2022-11-18T00:04:28.563Z,9.70
2022-11-18T00:06:57.282Z,9.60
2022-11-18T00:09:26.205Z,9.70
2022-11-18T00:12:11.961Z,9.70
2022-11-18T00:14:40.458Z,9.80
2022-11-18T00:17:09.014Z,9.70
2022-11-18T00:19:43.385Z,9.80
2022-11-18T00:22:14.778Z,9.80
2022-11-18T00:24:43.044Z,9.70
2022-11-18T00:27:11.452Z,9.70
2022-11-18T00:29:39.859Z,9.70
2022-11-18T00:32:08.452Z,9.60
2022-11-18T00:34:38.622Z,9.40
2022-11-18T00:37:07.836Z,9.40
2022-11-18T00:39:36.186Z,9.40
2022-11-18T00:42:22.249Z,9.30
2022-11-18T00:44:50.501Z,9.30
2022-11-18T00:47:30.137Z,9.40
2022-11-18T00:49:59.741Z,9.40
2022-11-18T00:52:28.304Z,9.30
2022-11-18T00:54:56.598Z,9.30
2022-11-18T00:57:24.875Z,9.30
2022-11-18T00:59:53.127Z,9.30
2022-11-18T01:02:21.441Z,9.40
2022-11-18T01:04:50.098Z,9.40
2022-11-18T01:07:19.682Z,9.40
2022-11-18T01:09:48.214Z,9.40
2022-11-18T01:12:33.612Z,9.40
2022-11-18T01:15:02.222Z,9.50
2022-11-18T01:17:34.700Z,9.50
2022-11-18T01:20:02.991Z,9.50
2022-11-18T01:22:32.822Z,9.60
2022-11-18T01:25:00.890Z,9.60
2022-11-18T01:27:29.142Z,9.60
2022-11-18T01:29:57.452Z,9.60
2022-11-18T01:32:25.938Z,9.60
2022-11-18T01:34:53.985Z,9.60
2022-11-18T01:37:22.365Z,9.70
2022-11-18T01:39:52.245Z,9.70
2022-11-18T01:42:20.613Z,9.70
2022-11-18T01:45:16.710Z,9.70
2022-11-18T01:47:50.934Z,9.70
2022-11-18T01:50:24.404Z,9.70
2022-11-18T01:52:54.548Z,9.70
2022-11-18T01:55:27.849Z,9.70
2022-11-18T01:58:01.796Z,9.70
2022-11-18T02:00:31.914Z,9.70
2022-11-18T02:03:02.511Z,9.70
2022-11-18T02:05:33.726Z,9.60
2022-11-18T02:08:03.295Z,9.60
2022-11-18T02:10:33.189Z,9.70
2022-11-18T02:13:02.790Z,9.70
2022-11-18T02:15:47.649Z,9.70
2022-11-18T02:18:27.552Z,9.70
2022-11-18T02:21:02.268Z,9.70
2022-11-18T02:24:13.547Z,9.70
2022-11-18T02:27:28.041Z,9.80
2022-11-18T02:30:03.814Z,9.70
2022-11-18T02:32:35.591Z,9.70
2022-11-18T02:35:11.157Z,9.70
2022-11-18T02:37:49.589Z,9.70
2022-11-18T02:40:23.832Z,9.70
2022-11-18T02:42:56.095Z,9.70
2022-11-18T02:45:30.535Z,9.70
2022-11-18T02:48:03.869Z,9.70
2022-11-18T02:50:37.013Z,9.70
2022-11-18T02:53:08.786Z,9.70
2022-11-18T02:55:39.892Z,9.70
2022-11-18T02:58:09.051Z,9.70
2022-11-18T03:00:38.684Z,9.80
2022-11-18T03:03:27.053Z,9.80
2022-11-18T03:06:09.009Z,9.80
2022-11-18T03:08:43.275Z,9.80
2022-11-18T03:11:17.564Z,9.80
2022-11-18T03:14:03.434Z,9.80
2022-11-18T03:16:38.649Z,9.80
2022-11-18T03:19:19.448Z,9.80
2022-11-18T03:21:58.765Z,9.80
2022-11-18T03:24:32.588Z,9.80
2022-11-18T03:27:14.048Z,9.80
2022-11-18T03:29:48.066Z,9.80
2022-11-18T03:32:22.229Z,9.80
2022-11-18T03:34:53.675Z,9.80
2022-11-18T03:37:23.887Z,9.80
2022-11-18T03:39:55.266Z,9.80
2022-11-18T03:42:28.152Z,9.80
2022-11-18T03:45:01.252Z,9.80
2022-11-18T03:47:35.575Z,9.70
2022-11-18T03:50:10.952Z,9.50
2022-11-18T03:52:40.369Z,9.60
2022-11-18T03:55:13.556Z,9.60
2022-11-18T03:57:48.340Z,9.50
2022-11-18T04:00:20.611Z,9.40
2022-11-18T04:02:51.889Z,9.50
2022-11-18T04:05:21.049Z,9.50
2022-11-18T04:07:57.777Z,9.50
2022-11-18T04:10:32.314Z,9.40
2022-11-18T04:13:07.033Z,9.40
2022-11-18T04:15:39.401Z,9.40
2022-11-18T04:18:09.862Z,9.30
2022-11-18T04:20:38.349Z,9.30
2022-11-18T04:23:07.388Z,9.30
2022-11-18T04:25:35.662Z,9.30
2022-11-18T04:28:04.164Z,9.30
2022-11-18T04:30:34.022Z,9.30
2022-11-18T04:33:02.573Z,9.30
2022-11-18T04:35:32.400Z,9.30
2022-11-18T04:38:00.678Z,9.30
2022-11-18T04:40:28.993Z,9.30
2022-11-18T04:42:57.747Z,9.20
2022-11-18T04:45:26.589Z,9.30
2022-11-18T04:48:00.264Z,9.30
2022-11-18T04:50:33.500Z,9.40
2022-11-18T04:53:03.224Z,9.40
2022-11-18T04:55:31.509Z,9.40
2022-11-18T04:57:59.794Z,9.40
2022-11-18T05:00:30.115Z,9.40
2022-11-18T05:03:00.136Z,9.30
2022-11-18T05:05:28.335Z,9.20
2022-11-18T05:07:58.228Z,9.10
2022-11-18T05:10:26.554Z,9.10
2022-11-18T05:13:20.515Z,9.10
2022-11-18T05:15:48.859Z,9.00
2022-11-18T05:18:16.924Z,8.90
2022-11-18T05:20:45.260Z,8.90
2022-11-18T05:23:15.164Z,9.00
2022-11-18T05:25:43.391Z,9.00
2022-11-18T05:28:11.746Z,9.10
2022-11-18T05:30:40.242Z,9.20
2022-11-18T05:33:08.807Z,9.20
2022-11-18T05:35:38.795Z,9.20
2022-11-18T05:38:07.064Z,9.10
2022-11-18T05:40:37.140Z,9.10
2022-11-18T05:43:13.389Z,9.20
2022-11-18T05:45:42.996Z,9.20
2022-11-18T05:48:12.157Z,9.20
2022-11-18T05:50:40.602Z,9.20
2022-11-18T05:53:09.034Z,9.30
2022-11-18T05:55:43.557Z,9.30
2022-11-18T05:58:12.083Z,9.30
2022-11-18T06:00:40.463Z,9.30
2022-11-18T06:03:14.361Z,9.30
2022-11-18T06:05:43.610Z,9.30
2022-11-18T06:08:13.891Z,9.30
2022-11-18T06:10:46.581Z,9.30
2022-11-18T06:13:21.784Z,9.30
2022-11-18T06:15:50.388Z,9.30
2022-11-18T06:18:23.734Z,9.40
2022-11-18T06:20:53.770Z,9.30
2022-11-18T06:23:22.777Z,9.20
2022-11-18T06:25:52.818Z,9.20
2022-11-18T06:28:23.599Z,9.10
2022-11-18T06:30:51.638Z,9.20
2022-11-18T06:33:20.069Z,9.10
2022-11-18T06:35:48.523Z,9.10
2022-11-18T06:38:22.885Z,9.10
2022-11-18T06:40:53.056Z,9.00
2022-11-18T06:43:38.832Z,9.10
2022-11-18T06:46:27.377Z,9.10
2022-11-18T06:48:55.490Z,9.10
2022-11-18T06:51:23.974Z,9.10
2022-11-18T06:53:53.054Z,9.20
2022-11-18T06:56:26.730Z,9.10
2022-11-18T06:59:02.678Z,9.00
2022-11-18T07:01:39.864Z,9.10
2022-11-18T07:04:08.269Z,9.10
2022-11-18T07:06:37.800Z,9.10
2022-11-18T07:09:08.678Z,9.20
2022-11-18T07:11:40.622Z,9.20
2022-11-18T07:14:31.276Z,9.10
2022-11-18T07:17:06.525Z,9.10
2022-11-18T07:19:37.787Z,9.20
2022-11-18T07:22:08.431Z,9.20
2022-11-18T07:24:45.925Z,9.30
2022-11-18T07:27:16.511Z,9.30
2022-11-18T07:29:44.960Z,9.20
2022-11-18T07:32:13.221Z,9.10
2022-11-18T07:34:41.532Z,9.10
2022-11-18T07:37:09.667Z,9.20
2022-11-18T07:39:40.365Z,9.10
2022-11-18T07:42:10.357Z,9.20
2022-11-18T07:44:40.509Z,9.10
2022-11-18T07:47:08.608Z,9.20
2022-11-18T07:49:36.905Z,9.30
2022-11-18T07:52:08.152Z,9.30
2022-11-18T07:54:36.670Z,9.30
2022-11-18T07:57:05.054Z,9.30
2022-11-18T07:59:33.404Z,9.30
2022-11-18T08:02:03.601Z,9.30
2022-11-18T08:04:32.635Z,9.30
2022-11-18T08:07:14.770Z,9.40
2022-11-18T08:09:47.937Z,9.30
2022-11-18T08:12:24.224Z,9.20
2022-11-18T08:14:52.516Z,9.20
2022-11-18T08:17:36.368Z,9.10
2022-11-18T08:20:04.946Z,9.20
2022-11-18T08:22:38.940Z,9.20
2022-11-18T08:25:45.232Z,9.10
2022-11-18T08:28:19.426Z,9.10
2022-11-18T08:33:41.048Z,9.20
2022-11-18T08:36:10.766Z,9.20
2022-11-18T08:38:39.106Z,9.10
2022-11-18T08:41:08.071Z,9.10
2022-11-18T08:43:36.890Z,9.10
2022-11-18T08:46:05.230Z,9.00
2022-11-18T08:48:33.488Z,9.00
2022-11-18T08:51:15.831Z,9.00
2022-11-18T08:53:44.775Z,9.00
2022-11-18T08:56:17.676Z,9.00
2022-11-18T08:58:46.819Z,9.10
2022-11-18T09:01:15.661Z,9.10
2022-11-18T09:03:44.027Z,9.10
2022-11-18T09:06:15.649Z,9.10
2022-11-18T09:08:44.410Z,9.10
2022-11-18T09:11:14.631Z,9.20
2022-11-18T09:14:14.382Z,9.10
2022-11-18T09:16:33.101Z,9.10
2022-11-18T09:19:18.600Z,9.10
2022-11-18T09:21:52.483Z,9.10
2022-11-18T09:24:22.958Z,9.10
2022-11-18T09:26:56.458Z,9.10
2022-11-18T09:29:30.165Z,9.10
2022-11-18T09:31:59.175Z,9.00
2022-11-18T09:34:27.321Z,9.00
2022-11-18T09:36:58.073Z,9.10
2022-11-18T09:39:26.632Z,9.10
2022-11-18T09:42:05.934Z,9.10
2022-11-18T09:44:48.983Z,9.00
2022-11-18T09:47:26.490Z,9.10
2022-11-18T09:49:56.665Z,9.20
2022-11-18T09:52:35.563Z,9.20
2022-11-18T09:55:12.713Z,9.20
2022-11-18T09:57:43.186Z,9.20
2022-11-18T10:00:16.584Z,9.00
2022-11-18T10:02:58.107Z,9.00
2022-11-18T10:05:29.055Z,9.10
2022-11-18T10:08:06.098Z,9.10
2022-11-18T10:10:47.469Z,9.10
2022-11-18T10:13:24.487Z,9.10
2022-11-18T10:16:01.697Z,9.10
2022-11-18T10:18:59.313Z,9.20
2022-11-18T10:21:36.433Z,9.20
2022-11-18T10:24:13.835Z,9.20
2022-11-18T10:26:43.286Z,9.30
2022-11-18T10:29:16.923Z,9.30
2022-11-18T10:32:04.202Z,9.30
2022-11-18T10:34:46.252Z,9.30
2022-11-18T10:37:38.760Z,9.40
2022-11-18T10:40:28.769Z,9.40
2022-11-18T10:42:57.548Z,9.50
2022-11-18T10:45:28.953Z,9.40
2022-11-18T10:48:10.413Z,9.50
2022-11-18T10:50:52.031Z,9.60
2022-11-18T10:53:32.789Z,9.50
2022-11-18T10:56:04.863Z,9.50
2022-11-18T10:58:37.586Z,9.60
2022-11-18T11:01:08.650Z,9.70
2022-11-18T11:03:38.913Z,9.70
2022-11-18T11:06:23.202Z,9.70
2022-11-18T11:08:54.932Z,9.70
2022-11-18T11:11:28.790Z,9.70
2022-11-18T11:14:06.495Z,9.70
2022-11-18T11:16:49.526Z,9.70
2022-11-18T11:19:23.111Z,9.80
2022-11-18T11:21:54.396Z,9.80
2022-11-18T11:24:26.291Z,9.80
2022-11-18T11:30:33.812Z,9.90
2022-11-18T11:33:34.083Z,9.90
2022-11-18T11:36:22.922Z,9.90
2022-11-18T11:39:04.922Z,10.00
2022-11-18T11:42:18.896Z,10.00
2022-11-18T11:45:01.287Z,9.90
2022-11-18T11:47:51.598Z,10.00
2022-11-18T11:50:29.453Z,10.10
2022-11-18T11:53:16.075Z,10.10
2022-11-18T11:56:12.257Z,10.30
2022-11-18T11:59:02.002Z,10.20
2022-11-18T12:01:43.177Z,10.30
2022-11-18T12:04:31.997Z,10.30
2022-11-18T12:07:07.891Z,10.20
2022-11-18T12:09:51.922Z,10.30
2022-11-18T12:12:39.513Z,10.50
2022-11-18T12:18:48.204Z,10.50
2022-11-18T12:21:58.330Z,10.50
2022-11-18T12:24:36.390Z,10.40
2022-11-18T12:27:08.020Z,10.40
2022-11-18T12:29:42.311Z,10.30
2022-11-18T12:32:28.782Z,10.20
2022-11-18T12:35:25.801Z,10.20
2022-11-18T12:38:05.124Z,10.30
2022-11-18T12:40:46.080Z,10.20
2022-11-18T12:44:03.414Z,10.20
2022-11-18T12:46:51.898Z,10.20
2022-11-18T12:50:15.433Z,10.20
2022-11-18T12:52:54.089Z,10.20
2022-11-18T12:55:38.478Z,10.20
2022-11-18T12:58:35.829Z,10.20
2022-11-18T13:01:20.469Z,10.30
2022-11-18T13:03:49.184Z,10.30
2022-11-18T13:06:26.890Z,10.30
2022-11-18T13:09:05.551Z,10.40
2022-11-18T13:11:47.392Z,10.40
2022-11-18T13:14:35.822Z,10.50
2022-11-18T13:17:21.361Z,10.60
2022-11-18T13:19:57.730Z,10.60
2022-11-18T13:22:43.607Z,10.60
2022-11-18T13:25:34.509Z,10.60
2022-11-18T13:48:10.277Z,10.70
2022-11-18T13:52:09.393Z,10.70
2022-11-18T13:55:28.930Z,10.70
2022-11-18T13:58:06.292Z,10.80
2022-11-18T14:00:38.843Z,10.90
2022-11-18T14:28:10.763Z,10.80
2022-11-18T14:30:41.699Z,10.80
2022-11-18T14:33:21.708Z,10.80
2022-11-18T14:35:53.662Z,10.80
2022-11-18T14:41:16.497Z,10.70
2022-11-18T14:43:46.098Z,10.60
2022-11-18T14:46:18.535Z,10.60
2022-11-18T14:48:48.584Z,10.60
2022-11-18T14:51:17.980Z,10.50
2022-11-18T14:53:46.528Z,10.50
2022-11-18T14:56:20.272Z,10.50
2022-11-18T14:58:48.548Z,10.40
2022-11-18T15:01:21.472Z,10.40
2022-11-18T15:03:54.813Z,10.30
2022-11-18T15:06:24.673Z,10.30
2022-11-18T15:08:54.348Z,10.30
2022-11-18T15:11:22.874Z,10.30
2022-11-18T15:13:51.319Z,10.20
2022-11-18T15:16:21.274Z,10.20
2022-11-18T15:18:51.896Z,10.20
2022-11-18T15:21:22.545Z,10.20
2022-11-18T15:23:51.068Z,10.10
2022-11-18T15:26:22.009Z,10.10
2022-11-18T15:28:51.751Z,10.10
2022-11-18T15:31:20.771Z,10.00
2022-11-18T15:33:50.130Z,10.00
2022-11-18T15:36:20.139Z,10.00
2022-11-18T15:38:51.082Z,9.90
2022-11-18T15:41:21.194Z,9.80
2022-11-18T15:43:49.872Z,9.70
2022-11-18T15:46:20.480Z,9.60
2022-11-18T15:48:49.382Z,9.60
2022-11-18T15:51:17.867Z,9.50
2022-11-18T15:53:46.168Z,9.50
2022-11-18T15:56:34.448Z,9.50
2022-11-18T15:59:05.283Z,9.50
2022-11-18T16:01:35.374Z,9.50
2022-11-18T16:04:04.364Z,9.50
2022-11-18T16:06:33.367Z,9.40
2022-11-18T16:09:05.405Z,9.40
2022-11-18T16:11:52.320Z,9.40
2022-11-18T16:14:23.382Z,9.30
2022-11-18T16:16:55.222Z,9.30
2022-11-18T16:19:25.630Z,9.30
2022-11-18T16:21:57.119Z,9.20
2022-11-18T16:24:27.370Z,9.20
2022-11-18T16:26:57.693Z,9.10
2022-11-18T16:29:25.878Z,9.20
2022-11-18T16:31:54.929Z,9.20
2022-11-18T16:34:25.375Z,9.10
2022-11-18T16:37:02.497Z,9.10
2022-11-18T16:39:32.426Z,9.10
2022-11-18T16:42:08.939Z,9.00
2022-11-18T16:44:38.227Z,9.00
2022-11-18T16:47:13.899Z,9.00
2022-11-18T16:49:42.985Z,8.90
2022-11-18T16:52:11.537Z,8.90
2022-11-18T16:54:45.368Z,8.90
2022-11-18T16:57:15.992Z,8.80
2022-11-18T16:59:44.274Z,8.80
2022-11-18T17:02:14.363Z,8.80
2022-11-18T17:04:42.723Z,8.90
2022-11-18T17:07:11.104Z,8.90
2022-11-18T17:09:39.528Z,8.70
2022-11-18T17:12:08.974Z,8.70
2022-11-18T17:14:40.432Z,8.70
2022-11-18T17:17:09.156Z,8.60
2022-11-18T17:19:37.646Z,8.60
2022-11-18T17:22:11.806Z,8.70
2022-11-18T17:24:40.105Z,8.70
2022-11-18T17:27:09.318Z,8.80
2022-11-18T17:29:39.184Z,8.80
2022-11-18T17:32:08.331Z,8.80
2022-11-18T17:34:40.210Z,8.80
2022-11-18T17:37:08.538Z,8.80
2022-11-18T17:39:36.960Z,8.80
2022-11-18T17:42:19.180Z,8.80
2022-11-18T17:44:48.818Z,8.80
2022-11-18T17:47:17.105Z,8.80
2022-11-18T17:49:45.844Z,8.70
2022-11-18T17:52:14.006Z,8.80
2022-11-18T17:54:42.297Z,8.70
2022-11-18T17:57:10.618Z,8.70
2022-11-18T17:59:38.881Z,8.70
2022-11-18T18:02:09.173Z,8.70
2022-11-18T18:04:37.239Z,8.70
2022-11-18T18:07:05.786Z,8.70
2022-11-18T18:09:34.150Z,8.60
2022-11-18T18:12:22.368Z,8.60
2022-11-18T18:14:49.792Z,8.70
2022-11-18T18:17:22.608Z,8.60
2022-11-18T18:19:50.960Z,8.50
2022-11-18T18:22:19.170Z,8.50
2022-11-18T18:24:47.598Z,8.50
2022-11-18T18:27:16.326Z,8.50
2022-11-18T18:29:45.213Z,8.50
2022-11-18T18:32:18.062Z,8.50
2022-11-18T18:34:48.619Z,8.50
2022-11-18T18:37:17.250Z,8.50
2022-11-18T18:39:45.318Z,8.40
2022-11-18T18:42:13.618Z,8.40
2022-11-18T18:44:58.900Z,8.40
2022-11-18T18:47:27.695Z,8.30
2022-11-18T18:49:57.491Z,8.40
2022-11-18T18:52:25.669Z,8.40
2022-11-18T18:54:54.099Z,8.30
2022-11-18T18:57:22.434Z,8.30
2022-11-18T18:59:50.456Z,8.30
2022-11-18T19:02:20.072Z,8.30
2022-11-18T19:04:48.550Z,8.30
2022-11-18T19:07:21.126Z,8.40
2022-11-18T19:09:50.509Z,8.40
2022-11-18T19:12:36.618Z,8.40
2022-11-18T19:15:06.743Z,8.30
2022-11-18T19:17:35.272Z,8.30
2022-11-18T19:20:23.460Z,8.30
2022-11-18T19:22:53.608Z,8.30
2022-11-18T19:25:25.183Z,8.30
2022-11-18T19:27:53.673Z,8.30
2022-11-18T19:30:22.106Z,8.30
2022-11-18T19:32:50.690Z,8.40
2022-11-18T19:35:19.226Z,8.40
2022-11-18T19:37:48.462Z,8.40
2022-11-18T19:40:20.900Z,8.40
2022-11-18T19:42:51.120Z,8.30
2022-11-18T19:45:19.681Z,8.30
2022-11-18T19:47:47.699Z,8.30
2022-11-18T19:50:17.844Z,8.30
2022-11-18T19:52:48.867Z,8.40
2022-11-18T19:55:21.492Z,8.40
2022-11-18T19:57:50.038Z,8.40
2022-11-18T20:00:19.990Z,8.40
2022-11-18T20:02:49.393Z,8.40
2022-11-18T20:05:35.092Z,8.40
2022-11-18T20:08:04.224Z,8.50
2022-11-18T20:10:36.441Z,8.40
2022-11-18T20:13:07.433Z,8.50
2022-11-18T20:15:36.498Z,8.40
2022-11-18T20:18:04.898Z,8.40
2022-11-18T20:20:35.001Z,8.40
2022-11-18T20:23:03.382Z,8.40
2022-11-18T20:25:36.348Z,8.40
2022-11-18T20:28:05.332Z,8.30
2022-11-18T20:30:33.806Z,8.30
2022-11-18T20:33:02.060Z,8.40
2022-11-18T20:35:30.995Z,8.40
2022-11-18T20:37:59.307Z,8.40
2022-11-18T20:40:28.622Z,8.40
2022-11-18T20:43:13.684Z,8.40
2022-11-18T20:45:44.335Z,8.40
2022-11-18T20:48:14.460Z,8.40
2022-11-18T20:50:44.297Z,8.40
2022-11-18T20:53:12.850Z,8.30
2022-11-18T20:55:42.615Z,8.30
2022-11-18T20:58:14.485Z,8.30
2022-11-18T21:00:43.388Z,8.40
2022-11-18T21:03:13.619Z,8.40
2022-11-18T21:05:44.827Z,8.40
2022-11-18T21:08:13.230Z,8.30
2022-11-18T21:10:41.866Z,8.20
2022-11-18T21:13:31.225Z,8.30
2022-11-18T21:15:59.651Z,8.30
2022-11-18T21:18:35.129Z,8.30
2022-11-18T21:21:21.728Z,8.30
2022-11-18T21:23:50.778Z,8.30
2022-11-18T21:26:19.817Z,8.40
2022-11-18T21:28:58.698Z,8.40
2022-11-18T21:31:28.703Z,8.30
2022-11-18T21:33:57.302Z,8.30
2022-11-18T21:36:27.730Z,8.20
2022-11-18T21:38:56.766Z,8.20
2022-11-18T21:41:24.966Z,8.30
2022-11-18T21:44:05.361Z,8.30
2022-11-18T21:46:35.893Z,8.30
2022-11-18T21:49:04.976Z,8.30
2022-11-18T21:51:34.573Z,8.30
2022-11-18T21:54:02.996Z,8.20
2022-11-18T21:56:31.891Z,8.20
2022-11-18T21:59:03.747Z,8.20
2022-11-18T22:01:33.753Z,8.30
2022-11-18T22:04:18.045Z,8.30
2022-11-18T22:06:46.233Z,8.40
2022-11-18T22:09:14.539Z,8.30
2022-11-18T22:11:43.021Z,8.20
2022-11-18T22:14:12.940Z,8.20
2022-11-18T22:16:41.396Z,8.30
2022-11-18T22:19:09.798Z,8.30
2022-11-18T22:21:38.064Z,8.30
2022-11-18T22:24:07.285Z,8.30
2022-11-18T22:26:35.932Z,8.20
2022-11-18T22:29:04.172Z,8.30
2022-11-18T22:31:33.701Z,8.30
2022-11-18T22:34:01.704Z,8.30
2022-11-18T22:36:30.240Z,8.20
2022-11-18T22:38:58.628Z,8.30
2022-11-18T22:41:45.385Z,8.30
2022-11-18T22:44:15.723Z,8.30
2022-11-18T22:46:48.206Z,8.20
2022-11-18T22:49:16.477Z,8.10
2022-11-18T22:51:44.738Z,8.10
2022-11-18T22:57:01.246Z,8.20
2022-11-18T22:59:29.484Z,8.30
2022-11-18T23:01:59.275Z,8.30
2022-11-18T23:04:28.643Z,8.40
2022-11-18T23:06:57.226Z,8.40
2022-11-18T23:09:25.795Z,8.40
2022-11-18T23:12:11.607Z,8.40
2022-11-18T23:14:39.845Z,8.40
2022-11-18T23:17:10.469Z,8.40
2022-11-18T23:19:42.040Z,8.50
2022-11-18T23:22:10.574Z,8.50
2022-11-18T23:24:38.808Z,8.60
2022-11-18T23:27:07.283Z,8.60
2022-11-18T23:29:35.739Z,8.60
2022-11-18T23:32:04.494Z,8.60
2022-11-18T23:34:34.375Z,8.60
2022-11-18T23:37:02.604Z,8.60
2022-11-18T23:39:30.794Z,8.60
2022-11-18T23:41:59.139Z,8.60
2022-11-18T23:44:46.668Z,8.60
2022-11-18T23:47:15.033Z,8.70
2022-11-18T23:49:44.842Z,8.60
2022-11-18T23:52:13.152Z,8.60
2022-11-18T23:54:41.904Z,8.60
2022-11-18T23:57:10.192Z,8.60
2022-11-18T23:59:38.619Z,8.60
